Time;durP1;ratioP1;P1;durP2;ratioP2;P2;SDS_P1;SDS_P2;PMS_P1;PMS_P2;Temp;Humidity;BMP_temperature;BMP_pressure;BME280_temperature;BME280_humidity;BME280_pressure;Samples;Min_cycle;Max_cycle;Signal;HPM_P1;HPM_P2
2023/08/05 00:01:07;;;;;;;;;10.33;6.67;;;;;19.02;60.64;101410.84;5038695;28;46229;-76
2023/08/05 00:03:32;;;;;;;;;8.00;5.33;;;;;19.05;60.48;101422.28;5038103;28;45329;-73
2023/08/05 00:05:58;;;;;;;;;9.33;8.00;;;;;19.07;60.83;101427.53;5041260;28;45679;-74
2023/08/05 00:08:24;;;;;;;;;7.67;6.67;;;;;19.15;60.47;101443.28;5038207;28;45558;-75
2023/08/05 00:10:50;;;;;;;;;6.67;5.33;;;;;19.22;60.27;101439.59;5039140;28;45479;-72
2023/08/05 00:13:15;;;;;;;;;6.33;6.33;;;;;19.25;60.12;101436.88;5036496;28;45571;-72
2023/08/05 00:15:42;;;;;;;;;5.00;5.00;;;;;19.05;59.68;101398.38;5038120;28;45437;-73
2023/08/05 00:18:08;;;;;;;;;6.00;6.00;;;;;18.77;59.61;101341.50;5038568;28;45407;-76
2023/08/05 00:20:33;;;;;;;;;5.00;5.00;;;;;19.14;59.53;101401.72;5038656;28;45501;-73
2023/08/05 00:22:59;;;;;;;;;7.00;6.00;;;;;19.31;59.41;101435.84;5039076;28;45420;-76
2023/08/05 00:25:25;;;;;;;;;7.00;6.67;;;;;19.16;59.96;101413.19;5038597;28;45354;-74
2023/08/05 00:27:50;;;;;;;;;11.67;6.67;;;;;19.16;59.94;101423.81;5038410;28;45314;-76
2023/08/05 00:30:16;;;;;;;;;6.33;5.33;;;;;18.79;59.83;101368.88;5038207;28;46570;-75
2023/08/05 00:32:41;;;;;;;;;8.33;6.00;;;;;19.16;59.95;101429.13;5038545;28;45679;-77
2023/08/05 00:35:07;;;;;;;;;9.00;7.00;;;;;19.00;60.84;101420.63;5038975;28;45418;-77
2023/08/05 00:37:34;;;;;;;;;7.67;6.00;;;;;18.98;60.63;101417.13;5036021;28;45512;-73
2023/08/05 00:40:00;;;;;;;;;5.33;5.33;;;;;18.93;61.13;101411.91;5037513;28;46259;-72
2023/08/05 00:42:26;;;;;;;;;7.33;7.33;;;;;18.61;61.16;101378.97;5034019;28;45583;-79
2023/08/05 00:44:52;;;;;;;;;7.00;6.33;;;;;18.70;61.58;101407.09;5038316;28;45523;-76
2023/08/05 00:47:19;;;;;;;;;7.67;6.00;;;;;18.61;61.66;101407.28;5038918;28;45441;-74
2023/08/05 00:49:47;;;;;;;;;9.00;7.67;;;;;18.54;61.72;101403.00;5044282;28;45292;-76
2023/08/05 00:52:15;;;;;;;;;10.67;7.67;;;;;18.55;61.93;101388.81;5041314;28;45373;-68
2023/08/05 00:54:41;;;;;;;;;7.00;6.00;;;;;18.54;61.69;101369.38;5039627;28;45429;-72
2023/08/05 00:57:09;;;;;;;;;8.67;6.33;;;;;18.70;61.68;101377.00;5034284;28;45610;-79
2023/08/05 00:59:34;;;;;;;;;5.33;5.33;;;;;18.67;61.26;101377.94;5030869;28;46196;-74
2023/08/05 01:02:00;;;;;;;;;9.00;6.67;;;;;18.75;61.14;101381.31;5032861;28;45424;-75
2023/08/05 01:04:26;;;;;;;;;13.33;7.00;;;;;18.78;61.74;101397.19;5037698;28;45346;-71
2023/08/05 01:06:53;;;;;;;;;7.00;7.00;;;;;18.80;61.23;101397.19;5036608;28;45547;-74
2023/08/05 01:09:19;;;;;;;;;7.33;6.33;;;;;18.60;61.26;101377.22;5030075;28;45704;-73
2023/08/05 01:11:44;;;;;;;;;7.67;6.00;;;;;18.63;61.37;101398.38;5036913;28;45503;-69
2023/08/05 01:14:10;;;;;;;;;7.33;6.67;;;;;18.78;61.21;101420.22;5037603;28;45532;-71
2023/08/05 01:16:35;;;;;;;;;5.00;5.00;;;;;18.42;61.88;101374.94;5037285;28;45655;-68
2023/08/05 01:19:06;;;;;;;;;10.00;7.00;;;;;18.34;62.07;101379.50;5037400;28;46190;-70
2023/08/05 01:21:40;;;;;;;;;8.33;6.00;;;;;18.57;62.21;101414.41;5037231;28;45588;-78
2023/08/05 01:24:11;;;;;;;;;7.00;7.00;;;;;18.57;62.44;101413.53;5036357;28;45476;-77
2023/08/05 01:26:38;;;;;;;;;3.67;3.67;;;;;18.59;62.88;101403.78;5037548;28;45304;-78
2023/08/05 01:29:05;;;;;;;;;8.67;6.00;;;;;18.50;62.34;101375.66;5037262;28;45478;-78
2023/08/05 01:31:32;;;;;;;;;9.00;6.67;;;;;18.46;62.57;101373.09;5037327;28;45346;-78
2023/08/05 01:33:58;;;;;;;;;9.67;7.33;;;;;18.42;62.67;101380.25;5037805;28;45453;-76
2023/08/05 01:36:24;;;;;;;;;6.00;6.00;;;;;18.22;63.22;101362.06;5037552;28;45613;-76
2023/08/05 01:38:49;;;;;;;;;8.00;8.00;;;;;18.32;62.94;101376.91;5040366;28;45541;-77
2023/08/05 01:41:16;;;;;;;;;7.33;7.33;;;;;18.33;63.17;101394.56;5040349;28;45450;-77
2023/08/05 01:43:42;;;;;;;;;9.00;7.33;;;;;18.20;63.24;101404.53;5039187;28;45433;-72
2023/08/05 01:46:08;;;;;;;;;9.67;7.33;;;;;18.22;63.64;101400.09;5037160;28;45572;-73
2023/08/05 01:48:34;;;;;;;;;7.33;7.33;;;;;18.25;63.32;101385.88;5037942;28;46382;-78
2023/08/05 01:50:59;;;;;;;;;7.00;6.00;;;;;18.26;62.93;101373.50;5037725;28;45220;-78
2023/08/05 01:53:25;;;;;;;;;6.67;6.00;;;;;18.35;62.83;101400.72;5037275;28;45469;-74
2023/08/05 01:55:50;;;;;;;;;7.00;6.00;;;;;18.15;62.51;101368.41;5039578;28;45558;-77
2023/08/05 01:58:16;;;;;;;;;5.67;5.00;;;;;18.38;62.00;101424.50;5038445;28;45570;-71
2023/08/05 02:00:50;;;;;;;;;7.00;7.00;;;;;18.47;61.79;101430.56;5038219;28;45479;-72
2023/08/05 02:03:15;;;;;;;;;5.00;5.00;;;;;18.51;61.52;101433.13;5037441;28;45434;-73
2023/08/05 02:05:41;;;;;;;;;4.33;4.33;;;;;18.37;61.14;101411.28;5037521;28;45483;-73
2023/08/05 02:08:06;;;;;;;;;7.00;4.67;;;;;18.40;61.36;101408.56;5036874;28;46101;-75
2023/08/05 02:10:32;;;;;;;;;5.67;5.67;;;;;18.42;61.35;101396.16;5037880;28;45417;-77
2023/08/05 02:12:57;;;;;;;;;7.33;6.33;;;;;18.63;61.45;101414.28;5037019;28;45263;-76
2023/08/05 02:15:26;;;;;;;;;12.33;7.00;;;;;18.49;61.07;101376.56;5038418;28;45623;-78
2023/08/05 02:17:51;;;;;;;;;9.33;7.00;;;;;18.52;61.39;101373.84;5035509;28;46708;-75
2023/08/05 02:20:17;;;;;;;;;8.00;6.33;;;;;18.59;60.98;101377.25;5037181;28;45591;-73
2023/08/05 02:22:43;;;;;;;;;2.33;2.33;;;;;18.58;60.83;101360.47;5036866;28;45391;-73
2023/08/05 02:25:08;;;;;;;;;4.33;4.33;;;;;18.52;61.10;101341.13;5037432;28;45321;-75
2023/08/05 02:27:34;;;;;;;;;5.00;4.00;;;;;18.63;61.42;101369.19;5051399;28;46999;-72
2023/08/05 02:29:59;;;;;;;;;5.33;4.00;;;;;18.54;61.95;101356.13;5055502;28;45389;-72
2023/08/05 02:32:25;;;;;;;;;5.33;5.33;;;;;18.23;61.62;101286.94;5038993;28;45480;-78
2023/08/05 02:34:51;;;;;;;;;4.00;4.00;;;;;18.50;61.74;101349.13;5036847;28;45436;-76
2023/08/05 02:37:16;;;;;;;;;5.00;5.00;;;;;18.11;62.29;101309.28;5042078;28;46108;-76
2023/08/05 02:39:45;;;;;;;;;4.67;4.00;;;;;18.32;62.28;101347.75;5042227;28;45364;-76
2023/08/05 02:42:10;;;;;;;;;6.00;4.67;;;;;17.89;62.55;101278.78;5040612;28;45429;-77
2023/08/05 02:44:36;;;;;;;;;9.67;6.67;;;;;18.20;62.47;101319.69;5041623;28;45278;-74
2023/08/05 02:47:01;;;;;;;;;7.00;5.33;;;;;18.10;62.97;101311.94;5041925;28;45505;-77
2023/08/05 02:49:27;;;;;;;;;8.00;6.00;;;;;17.97;63.05;101292.78;5041468;28;45624;-75
2023/08/05 02:51:53;;;;;;;;;4.33;4.33;;;;;17.94;63.33;101300.78;5039146;28;45490;-75
2023/08/05 02:54:19;;;;;;;;;6.00;4.00;;;;;17.93;63.97;101291.06;5040632;28;45443;-74
2023/08/05 02:56:45;;;;;;;;;5.00;4.00;;;;;17.98;63.70;101295.38;5039973;28;45902;-71
2023/08/05 02:59:11;;;;;;;;;6.00;4.00;;;;;17.98;63.64;101291.84;5040421;28;45703;-77
2023/08/05 03:01:36;;;;;;;;;6.00;3.33;;;;;17.95;63.90;101289.28;5042547;28;45488;-77
2023/08/05 03:04:02;;;;;;;;;7.00;3.00;;;;;17.88;64.41;101291.16;5034877;28;45521;-78
2023/08/05 03:06:28;;;;;;;;;8.67;4.67;;;;;17.94;64.04;101295.50;5033236;28;47892;-77
2023/08/05 03:08:54;;;;;;;;;12.00;6.00;;;;;17.97;63.66;101285.69;5058447;28;45032;-73
2023/08/05 03:11:21;;;;;;;;;5.67;5.00;;;;;17.97;63.83;101279.53;5051107;28;44864;-78
2023/08/05 03:13:49;;;;;;;;;5.00;4.00;;;;;18.00;63.92;101303.31;5046558;28;44836;-78
2023/08/05 03:16:17;;;;;;;;;9.33;5.67;;;;;17.97;63.95;101284.81;5050403;28;45427;-79
2023/08/05 03:18:42;;;;;;;;;4.00;4.00;;;;;17.68;63.54;101235.91;5045261;28;45156;-77
2023/08/05 03:21:10;;;;;;;;;8.00;5.00;;;;;18.09;63.95;101299.59;5043460;28;46725;-78
2023/08/05 03:23:36;;;;;;;;;5.33;4.33;;;;;17.96;63.14;101265.41;5046405;28;45301;-72
2023/08/05 03:26:04;;;;;;;;;6.33;6.33;;;;;18.22;63.16;101301.97;5042185;28;45463;-72
2023/08/05 03:28:30;;;;;;;;;4.00;4.00;;;;;18.20;63.36;101287.00;5040923;28;45188;-71
2023/08/05 03:30:56;;;;;;;;;2.00;2.00;;;;;18.09;63.43;101276.63;5041239;28;45325;-72
2023/08/05 03:33:23;;;;;;;;;8.33;5.33;;;;;18.19;63.74;101296.72;5039925;28;45345;-70
2023/08/05 03:35:49;;;;;;;;;4.67;4.67;;;;;18.02;63.50;101262.59;5040108;28;45279;-69
2023/08/05 03:38:14;;;;;;;;;6.33;5.33;;;;;17.95;63.66;101246.88;5037826;28;45509;-71
2023/08/05 03:40:40;;;;;;;;;5.00;5.00;;;;;18.15;63.66;101286.22;5039096;28;45778;-74
2023/08/05 03:43:06;;;;;;;;;6.00;4.67;;;;;18.14;63.52;101284.47;5039833;28;45353;-72
2023/08/05 03:45:31;;;;;;;;;3.00;3.00;;;;;18.03;63.42;101284.69;5038511;28;46189;-74
2023/08/05 03:47:57;;;;;;;;;9.33;7.33;;;;;18.16;63.55;101294.13;5038201;28;45266;-78
2023/08/05 03:50:23;;;;;;;;;9.33;6.00;;;;;18.14;63.04;101293.28;5039731;28;45422;-76
2023/08/05 03:52:49;;;;;;;;;5.33;5.33;;;;;18.14;63.43;101292.44;5039624;28;45729;-78
2023/08/05 03:55:19;;;;;;;;;9.00;5.67;;;;;18.07;63.63;101290.81;5038847;28;45936;-77
2023/08/05 03:57:46;;;;;;;;;5.00;5.00;;;;;18.09;63.68;101291.66;5038655;28;46084;-78
2023/08/05 04:00:12;;;;;;;;;6.67;6.67;;;;;17.89;63.72;101258.47;5038880;28;45613;-75
2023/08/05 04:02:38;;;;;;;;;6.67;5.33;;;;;17.88;63.61;101258.50;5038662;28;45397;-78
2023/08/05 04:05:04;;;;;;;;;8.00;8.00;;;;;17.58;63.96;101189.28;5040383;28;45630;-77
2023/08/05 04:07:30;;;;;;;;;8.00;6.00;;;;;17.87;63.86;101232.88;5028547;28;45327;-76
2023/08/05 04:09:56;;;;;;;;;6.33;5.67;;;;;17.96;63.81;101243.31;5041962;28;45279;-78
2023/08/05 04:12:22;;;;;;;;;5.33;5.33;;;;;17.82;63.51;101221.50;5039657;28;45286;-78
2023/08/05 04:14:50;;;;;;;;;8.00;5.33;;;;;17.69;63.87;101220.88;5038965;28;46109;-77
2023/08/05 04:17:16;;;;;;;;;7.33;4.67;;;;;17.62;64.29;101220.09;5039167;28;45515;-77
2023/08/05 04:19:42;;;;;;;;;7.00;5.00;;;;;17.69;64.36;101237.63;5037405;28;45446;-78
2023/08/05 04:22:08;;;;;;;;;5.00;5.00;;;;;17.74;64.19;101213.69;5039180;28;45450;-74
2023/08/05 04:24:35;;;;;;;;;7.33;5.67;;;;;17.55;64.32;101181.41;5039317;28;45456;-77
2023/08/05 04:27:01;;;;;;;;;7.00;5.00;;;;;17.56;64.46;101188.47;5037973;28;45455;-77
2023/08/05 04:29:27;;;;;;;;;5.00;5.00;;;;;17.63;64.32;101211.28;5037697;28;45541;-78
2023/08/05 04:31:53;;;;;;;;;6.00;6.00;;;;;17.45;64.74;101195.72;5039134;28;45377;-77
2023/08/05 04:34:19;;;;;;;;;5.33;5.00;;;;;17.59;64.53;101213.09;5038108;28;45583;-76
2023/08/05 04:36:50;;;;;;;;;6.00;5.33;;;;;17.50;64.57;101204.47;5037964;28;45435;-76
2023/08/05 04:39:18;;;;;;;;;4.00;4.00;;;;;17.58;64.61;101237.84;5038869;28;45484;-77
2023/08/05 04:41:44;;;;;;;;;7.00;4.00;;;;;17.42;64.75;101211.69;5038247;28;45361;-77
2023/08/05 04:44:10;;;;;;;;;6.33;4.33;;;;;17.49;65.28;101231.84;5037730;28;46219;-77
2023/08/05 04:46:36;;;;;;;;;5.00;5.00;;;;;17.57;64.93;101232.56;5038411;28;45705;-77
2023/08/05 04:49:04;;;;;;;;;6.00;5.67;;;;;17.50;64.38;101213.28;5037881;28;45362;-78
2023/08/05 04:51:29;;;;;;;;;4.67;4.67;;;;;17.58;64.07;101210.47;5038287;28;45421;-76
2023/08/05 04:53:55;;;;;;;;;5.67;4.33;;;;;17.60;64.10;101203.38;5038739;28;46480;-74
2023/08/05 04:56:25;;;;;;;;;7.67;5.00;;;;;17.79;63.96;101227.72;5041787;28;45578;-77
2023/08/05 04:58:54;;;;;;;;;5.67;5.67;;;;;17.79;63.38;101211.81;5040013;28;45370;-77
2023/08/05 05:01:20;;;;;;;;;6.33;5.00;;;;;17.88;63.65;101224.91;5039157;28;45361;-75
2023/08/05 05:03:46;;;;;;;;;3.67;3.67;;;;;17.90;63.40;101228.41;5037717;28;45478;-76
2023/08/05 05:06:12;;;;;;;;;6.33;4.33;;;;;17.93;63.50;101220.38;5038334;28;45345;-74
2023/08/05 05:08:38;;;;;;;;;4.67;4.33;;;;;17.94;63.16;101210.69;5038939;28;45325;-78
2023/08/05 05:11:04;;;;;;;;;5.33;5.00;;;;;17.92;63.12;101200.09;5036443;28;45340;-80
2023/08/05 05:13:29;;;;;;;;;4.67;2.67;;;;;17.72;62.90;101178.41;5037253;28;45374;-78
2023/08/05 05:15:56;;;;;;;;;7.00;5.00;;;;;17.70;63.38;101175.81;5038139;28;45318;-80
2023/08/05 05:18:22;;;;;;;;;3.67;3.67;;;;;17.86;63.38;101188.75;5038120;28;45253;-78
2023/08/05 05:20:54;;;;;;;;;4.33;4.00;;;;;17.76;62.90;101159.78;5036969;28;45609;-79
2023/08/05 05:23:20;;;;;;;;;4.67;4.67;;;;;17.73;63.44;101181.03;5038793;28;45414;-80
2023/08/05 05:25:46;;;;;;;;;3.00;3.00;;;;;17.65;63.83;101169.72;5037085;28;45570;-72
2023/08/05 05:28:12;;;;;;;;;5.00;5.00;;;;;17.76;63.90;101180.09;5037360;28;45562;-73
2023/08/05 05:30:38;;;;;;;;;3.33;3.33;;;;;17.52;63.62;101144.41;5037212;28;45547;-73
2023/08/05 05:33:06;;;;;;;;;4.33;4.00;;;;;17.64;63.57;101148.56;5037450;28;45926;-72
2023/08/05 05:35:32;;;;;;;;;7.67;6.33;;;;;17.85;63.30;101174.66;5036987;28;47389;-72
2023/08/05 05:37:58;;;;;;;;;9.00;7.33;;;;;17.88;63.01;101177.22;5037151;28;45568;-73
2023/08/05 05:40:23;;;;;;;;;4.00;4.00;;;;;17.81;63.61;101172.97;5037475;28;45447;-73
2023/08/05 05:42:49;;;;;;;;;4.33;4.33;;;;;17.45;63.63;101117.16;5036927;28;46155;-68
2023/08/05 05:45:18;;;;;;;;;9.00;6.00;;;;;17.67;63.57;101162.59;5035705;28;45455;-70
2023/08/05 05:47:44;;;;;;;;;7.33;5.33;;;;;17.68;63.65;101155.56;5037729;28;45486;-71
2023/08/05 05:50:10;;;;;;;;;7.33;5.67;;;;;17.66;63.54;101158.22;5037733;28;45725;-76
2023/08/05 05:52:36;;;;;;;;;6.67;5.00;;;;;17.55;63.74;101133.72;5037126;28;45664;-78
2023/08/05 05:55:03;;;;;;;;;8.33;4.00;;;;;17.34;63.18;101088.22;5037930;28;45278;-77
2023/08/05 05:57:29;;;;;;;;;8.33;6.67;;;;;17.77;63.70;101155.34;5039875;28;45329;-79
2023/08/05 05:59:56;;;;;;;;;6.00;4.33;;;;;17.69;63.61;101128.16;5054135;28;45400;-78
2023/08/05 06:02:22;;;;;;;;;9.33;6.00;;;;;17.62;63.54;101103.56;5037776;28;45377;-79
2023/08/05 06:04:48;;;;;;;;;6.33;3.67;;;;;17.78;63.34;101112.06;5037335;28;45508;-77
2023/08/05 06:07:14;;;;;;;;;5.00;4.67;;;;;17.88;63.42;101120.72;5036925;28;45504;-77
2023/08/05 06:09:40;;;;;;;;;6.33;6.00;;;;;17.67;63.26;101079.63;5054178;28;45413;-77
2023/08/05 06:12:09;;;;;;;;;6.00;6.00;;;;;17.80;63.45;101100.56;5039107;28;46981;-79
2023/08/05 06:14:36;;;;;;;;;6.67;5.00;;;;;17.83;63.45;101088.16;5039615;28;45637;-79
2023/08/05 06:17:02;;;;;;;;;8.00;5.67;;;;;18.00;62.81;101117.78;5041428;28;45313;-70
2023/08/05 06:19:28;;;;;;;;;2.00;2.00;;;;;17.95;63.03;101106.41;5040786;28;45290;-78
2023/08/05 06:21:54;;;;;;;;;5.00;5.00;;;;;18.19;62.92;101119.09;5040769;28;46307;-75
2023/08/05 06:24:19;;;;;;;;;6.33;4.67;;;;;17.97;62.39;101044.53;5053549;28;45562;-75
2023/08/05 06:26:45;;;;;;;;;4.00;3.67;;;;;18.50;62.16;101110.41;5053608;28;45421;-79
2023/08/05 06:29:11;;;;;;;;;7.00;5.00;;;;;18.52;62.06;101111.22;5040531;28;45477;-75
2023/08/05 06:31:37;;;;;;;;;5.33;5.00;;;;;18.28;61.74;101080.03;5049437;28;45779;-80
2023/08/05 06:34:03;;;;;;;;;6.00;6.00;;;;;18.10;62.15;101037.13;5048331;28;45693;-70
2023/08/05 06:36:29;;;;;;;;;6.33;6.00;;;;;18.53;61.43;101082.91;5046126;28;45346;-80
2023/08/05 06:38:54;;;;;;;;;7.33;6.67;;;;;18.79;60.65;101085.81;5039650;28;45284;-71
2023/08/05 06:41:20;;;;;;;;;7.00;5.67;;;;;18.65;61.54;101042.84;5038717;28;46290;-73
2023/08/05 06:43:45;;;;;;;;;5.67;5.67;;;;;19.21;60.33;101096.16;5038947;28;45506;-74
2023/08/05 06:46:11;;;;;;;;;5.00;5.00;;;;;19.11;59.66;101065.47;5040201;28;45511;-71
2023/08/05 06:48:37;;;;;;;;;7.33;6.00;;;;;19.23;59.89;101086.38;5039890;28;45504;-73
2023/08/05 06:51:02;;;;;;;;;9.67;4.00;;;;;19.19;59.73;101084.72;5039301;28;45736;-73
2023/08/05 06:53:28;;;;;;;;;5.33;5.33;;;;;18.79;59.40;101000.91;5040214;28;45369;-74
2023/08/05 06:56:02;;;;;;;;;7.00;4.33;;;;;19.12;59.43;101038.00;5039298;28;45819;-73
2023/08/05 06:58:37;;;;;;;;;6.00;5.00;;;;;19.49;58.64;101096.25;5039266;28;45417;-73
2023/08/05 07:01:06;;;;;;;;;6.00;6.00;;;;;19.40;58.53;101087.69;5056616;28;45378;-83
2023/08/05 07:03:32;;;;;;;;;4.00;4.00;;;;;19.27;59.16;101089.81;5040157;28;45542;-76
2023/08/05 07:05:57;;;;;;;;;6.00;6.00;;;;;18.98;59.26;101050.81;5040779;28;45378;-79
2023/08/05 07:08:24;;;;;;;;;5.67;4.33;;;;;19.15;59.32;101077.78;5033212;28;45455;-76
2023/08/05 07:10:57;;;;;;;;;5.67;4.67;;;;;19.19;58.91;101076.75;5039685;28;45537;-75
2023/08/05 07:13:24;;;;;;;;;6.00;6.00;;;;;19.20;58.68;101064.38;5039055;28;45507;-69
2023/08/05 07:15:49;;;;;;;;;8.00;5.00;;;;;19.22;58.69;101058.09;5038878;28;45746;-77
2023/08/05 07:18:15;;;;;;;;;5.00;4.00;;;;;19.41;58.46;101055.78;5038879;28;45478;-73
2023/08/05 07:20:42;;;;;;;;;4.33;4.33;;;;;19.22;58.19;101018.25;5038638;28;46008;-71
2023/08/05 07:23:07;;;;;;;;;4.33;3.67;;;;;19.28;57.72;101046.41;5041229;28;45533;-71
2023/08/05 07:25:33;;;;;;;;;4.33;3.67;;;;;19.04;58.29;101009.03;5040956;28;45516;-72
2023/08/05 07:27:58;;;;;;;;;5.00;4.00;;;;;19.33;57.51;101044.47;5041073;28;45369;-81
2023/08/05 07:30:27;;;;;;;;;5.33;4.00;;;;;19.57;57.34;101065.94;5033214;28;45386;-77
2023/08/05 07:32:52;;;;;;;;;3.67;3.67;;;;;19.48;56.98;101067.06;5040551;28;45556;-79
2023/08/05 07:35:18;;;;;;;;;5.33;4.00;;;;;19.27;56.95;101040.25;5040096;28;45382;-80
2023/08/05 07:37:46;;;;;;;;;6.00;3.00;;;;;19.30;57.29;101022.47;5040600;28;45283;-85
2023/08/05 07:40:15;;;;;;;;;3.00;2.00;;;;;19.53;57.12;101048.31;5039155;28;46208;-74
2023/08/05 07:42:43;;;;;;;;;4.00;3.33;;;;;19.42;56.63;101033.59;5040279;28;45422;-78
2023/08/05 07:45:11;;;;;;;;;4.00;4.00;;;;;19.23;56.59;100989.91;5038832;28;45438;-75
2023/08/05 07:47:41;;;;;;;;;4.00;2.00;;;;;19.62;55.32;101043.63;5039420;28;45804;-70
2023/08/05 07:50:10;;;;;;;;;2.33;2.00;;;;;19.69;55.20;101057.59;5038192;28;45496;-76
2023/08/05 07:52:40;;;;;;;;;5.00;3.00;;;;;19.64;55.50;101007.22;5038367;28;45577;-70
2023/08/05 07:55:06;;;;;;;;;3.00;3.00;;;;;20.20;54.56;101038.25;5038612;28;45437;-74
2023/08/05 07:57:35;;;;;;;;;3.00;2.33;;;;;20.08;53.86;101026.25;5039228;28;45468;-79
2023/08/05 08:00:03;;;;;;;;;1.33;1.33;;;;;19.94;54.13;101009.88;5038481;28;45557;-71
2023/08/05 08:02:28;;;;;;;;;3.67;3.00;;;;;20.22;53.76;101048.88;5038377;28;45338;-72
2023/08/05 08:04:54;;;;;;;;;2.33;2.00;;;;;19.82;54.07;100983.69;5040499;28;45437;-72
2023/08/05 08:07:21;;;;;;;;;2.67;2.00;;;;;20.14;53.71;101030.47;5039948;28;45408;-75
2023/08/05 08:09:48;;;;;;;;;2.00;2.00;;;;;19.76;54.01;100967.94;5041364;28;45509;-79
2023/08/05 08:12:13;;;;;;;;;3.33;2.33;;;;;20.03;54.14;101035.31;5044396;28;45223;-78
2023/08/05 08:14:39;;;;;;;;;7.00;4.33;;;;;19.80;53.94;100985.53;5042595;28;45557;-78
2023/08/05 08:17:05;;;;;;;;;2.00;2.00;;;;;19.65;54.26;100968.25;5040620;28;45480;-79
2023/08/05 08:19:31;;;;;;;;;3.33;3.33;;;;;19.85;54.29;100994.22;5038219;28;45656;-80
2023/08/05 08:21:57;;;;;;;;;3.00;2.67;;;;;19.87;54.00;101009.19;5038152;28;45444;-79
2023/08/05 08:24:22;;;;;;;;;1.00;1.00;;;;;19.74;54.89;101006.97;5039464;28;45459;-73
2023/08/05 08:26:48;;;;;;;;;4.00;2.33;;;;;19.72;54.55;101007.03;5034169;28;45446;-77
2023/08/05 08:29:14;;;;;;;;;2.67;2.67;;;;;19.48;54.53;100993.56;5034677;28;45989;-82
2023/08/05 08:31:40;;;;;;;;;3.00;3.00;;;;;19.51;55.50;101002.38;5036910;28;45434;-74
2023/08/05 08:34:05;;;;;;;;;0.00;0.00;;;;;19.58;54.92;100995.94;5037102;28;45303;-78
2023/08/05 08:36:31;;;;;;;;;1.33;1.33;;;;;19.52;55.04;100982.84;5038571;28;45349;-77
2023/08/05 08:38:57;;;;;;;;;2.00;2.00;;;;;19.55;55.64;100982.75;5037798;28;45850;-76
2023/08/05 08:41:25;;;;;;;;;2.67;2.33;;;;;19.19;55.24;100922.75;5037668;28;45424;-77
2023/08/05 08:43:51;;;;;;;;;3.67;3.00;;;;;19.82;55.47;101012.94;5037320;28;45480;-70
2023/08/05 08:46:20;;;;;;;;;3.67;2.00;;;;;19.84;55.29;101014.63;5037539;28;45549;-72
2023/08/05 08:48:48;;;;;;;;;3.00;2.00;;;;;19.87;55.04;101014.50;5038377;28;45708;-79
2023/08/05 08:51:17;;;;;;;;;2.00;2.00;;;;;19.82;54.83;100991.66;5039329;28;45546;-78
2023/08/05 08:53:44;;;;;;;;;5.00;2.00;;;;;19.83;54.44;101007.56;5039956;28;45466;-77
2023/08/05 08:56:10;;;;;;;;;5.33;3.33;;;;;19.82;54.13;101010.28;5037826;28;45473;-74
2023/08/05 08:58:37;;;;;;;;;2.00;2.00;;;;;19.77;54.61;100988.28;5037908;28;45377;-74
2023/08/05 09:01:04;;;;;;;;;3.33;2.00;;;;;19.87;54.24;101005.69;5037771;28;45451;-73
2023/08/05 09:03:33;;;;;;;;;4.33;2.33;;;;;19.87;54.23;100982.63;5038117;28;45471;-69
2023/08/05 09:05:59;;;;;;;;;5.67;5.00;;;;;19.79;53.84;100989.97;5052675;28;45549;-71
2023/08/05 09:08:26;;;;;;;;;7.00;7.00;;;;;19.58;55.12;100958.75;5036797;28;46147;-75
2023/08/05 09:10:52;;;;;;;;;3.67;3.33;;;;;19.73;55.48;100968.03;5052682;28;45346;-71
2023/08/05 09:13:19;;;;;;;;;8.00;5.00;;;;;19.83;55.21;100954.38;5052832;28;45405;-73
2023/08/05 09:15:46;;;;;;;;;6.00;4.33;;;;;20.10;56.04;100957.06;5036872;28;45377;-72
2023/08/05 09:18:12;;;;;;;;;6.00;4.00;;;;;20.38;56.19;100961.41;5036613;28;45658;-70
2023/08/05 09:20:38;;;;;;;;;4.00;3.00;;;;;20.58;55.18;100952.78;5037074;28;45464;-72
2023/08/05 09:23:06;;;;;;;;;3.33;3.33;;;;;20.51;53.55;100950.28;5037025;28;45436;-72
2023/08/05 09:25:38;;;;;;;;;2.67;2.00;;;;;20.51;54.36;100950.28;5037047;28;45486;-71
2023/08/05 09:28:05;;;;;;;;;7.67;3.33;;;;;20.53;53.24;100960.88;5037178;28;46518;-71
2023/08/05 09:30:32;;;;;;;;;2.33;2.33;;;;;20.63;53.09;100924.19;5037283;28;45374;-69
2023/08/05 09:33:04;;;;;;;;;3.33;2.67;;;;;20.87;53.06;100907.28;5035511;28;45473;-72
2023/08/05 09:35:30;;;;;;;;;2.00;2.00;;;;;20.80;51.56;100862.34;5035262;28;45545;-70
2023/08/05 09:37:56;;;;;;;;;4.00;2.33;;;;;21.29;51.15;100924.34;5036322;28;46573;-72
2023/08/05 09:40:26;;;;;;;;;3.00;3.00;;;;;20.69;51.62;100849.44;5035092;28;45415;-72
2023/08/05 09:42:59;;;;;;;;;3.33;3.00;;;;;20.98;51.29;100906.91;5035591;28;45398;-70
2023/08/05 09:45:28;;;;;;;;;3.67;3.00;;;;;20.87;52.03;100911.75;5036552;28;45503;-70
2023/08/05 09:48:04;;;;;;;;;3.33;3.00;;;;;20.96;52.67;100922.94;5036404;28;45549;-70
2023/08/05 09:50:36;;;;;;;;;3.00;3.00;;;;;20.64;52.80;100878.03;5035914;28;45387;-70
2023/08/05 09:53:06;;;;;;;;;3.67;3.00;;;;;20.51;52.81;100889.09;5037838;28;45481;-71
2023/08/05 09:55:33;;;;;;;;;5.00;3.00;;;;;20.45;52.43;100915.03;5037538;28;45414;-71
2023/08/05 09:58:07;;;;;;;;;3.00;2.00;;;;;20.29;53.62;100891.69;5036161;28;45480;-73
2023/08/05 10:00:33;;;;;;;;;2.00;2.00;;;;;20.17;54.42;100875.25;5036292;28;45448;-73
2023/08/05 10:03:00;;;;;;;;;2.00;2.00;;;;;19.90;54.62;100857.56;5036034;28;46221;-74
2023/08/05 10:05:26;;;;;;;;;3.00;3.00;;;;;19.62;55.39;100812.47;5036379;28;45507;-73
2023/08/05 10:07:55;;;;;;;;;3.00;3.00;;;;;20.00;55.84;100876.72;5036502;28;45947;-74
2023/08/05 10:10:21;;;;;;;;;2.33;2.33;;;;;19.55;56.89;100839.28;5036368;28;45342;-71
2023/08/05 10:12:49;;;;;;;;;2.00;2.00;;;;;19.66;58.02;100863.72;5036484;28;45554;-71
2023/08/05 10:15:31;;;;;;;;;38.25;34.00;;;;;19.44;57.61;100824.56;5036400;28;45466;-75
2023/08/05 10:17:57;;;;;;;;;21.00;17.33;;;;;19.70;58.58;100860.94;5025853;28;45586;-70
2023/08/05 10:20:23;;;;;;;;;6.33;5.33;;;;;19.24;57.96;100792.50;5036213;28;45354;-73
2023/08/05 10:23:03;;;;;;;;;5.00;3.33;;;;;19.62;57.94;100833.72;5035429;28;45480;-70
2023/08/05 10:25:49;;;;;;;;;2.00;2.00;;;;;19.61;58.38;100860.34;5028713;28;45526;-68
2023/08/05 10:28:24;;;;;;;;;3.00;3.00;;;;;19.59;58.15;100867.50;5036590;28;45582;-68
2023/08/05 10:30:51;;;;;;;;;6.00;5.00;;;;;19.64;59.17;100870.84;5035544;28;45600;-68
2023/08/05 10:33:17;;;;;;;;;3.00;3.00;;;;;19.67;58.98;100863.66;5035932;28;45459;-68
2023/08/05 10:35:44;;;;;;;;;4.00;3.00;;;;;19.73;60.12;100853.78;5036576;28;45342;-72
2023/08/05 10:38:19;;;;;;;;;4.00;4.00;;;;;20.00;59.10;100854.59;5034575;28;45478;-68
2023/08/05 10:41:02;;;;;;;;;4.33;4.33;;;;;20.16;58.86;100842.50;5034404;28;45693;-68
2023/08/05 10:43:31;;;;;;;;;4.67;4.33;;;;;20.12;58.79;100824.91;5035470;28;45483;-67
2023/08/05 10:45:58;;;;;;;;;5.00;5.00;;;;;20.15;58.72;100838.13;5034439;28;45708;-73
2023/08/05 10:48:33;;;;;;;;;5.00;4.67;;;;;20.16;58.36;100809.72;5035528;28;46086;-71
2023/08/05 10:51:06;;;;;;;;;5.33;4.67;;;;;20.22;57.80;100810.38;5035943;28;45426;-72
2023/08/05 10:53:32;;;;;;;;;4.67;4.67;;;;;20.19;57.62;100781.22;5036064;28;45452;-72
2023/08/05 10:55:58;;;;;;;;;3.67;3.00;;;;;20.38;58.25;100809.78;5031691;28;45406;-74
2023/08/05 10:58:28;;;;;;;;;7.33;5.00;;;;;20.23;57.84;100779.31;5053401;28;47021;-73
2023/08/05 11:01:03;;;;;;;;;6.67;5.00;;;;;20.17;57.82;100784.84;5039322;28;45580;-74
2023/08/05 11:03:42;;;;;;;;;4.67;4.67;;;;;20.08;58.19;100781.63;5039282;28;45310;-76
2023/08/05 11:06:10;;;;;;;;;5.33;3.67;;;;;19.79;57.79;100708.28;5038508;28;45925;-76
2023/08/05 11:08:37;;;;;;;;;7.00;4.33;;;;;20.05;58.21;100722.38;5038973;28;45458;-74
2023/08/05 11:11:15;;;;;;;;;7.00;7.00;;;;;20.24;57.83;100750.03;5039339;28;45509;-74
2023/08/05 11:13:44;;;;;;;;;6.00;4.33;;;;;20.20;58.22;100747.53;5039014;28;45451;-74
2023/08/05 11:16:14;;;;;;;;;27.00;23.33;;;;;20.28;58.26;100742.78;5038050;28;45496;-77
2023/08/05 11:18:41;;;;;;;;;29.33;28.67;;;;;20.23;57.46;100711.03;5039131;28;46304;-73
2023/08/05 11:21:13;;;;;;;;;15.00;14.33;;;;;20.29;56.90;100702.84;5040069;28;45478;-73
2023/08/05 11:23:41;;;;;;;;;3.33;3.33;;;;;20.19;57.30;100689.94;5038943;28;46093;-73